Time;durP1;ratioP1;P1;durP2;ratioP2;P2;SDS_P1;SDS_P2;PMS_P1;PMS_P2;Temp;Humidity;BMP_temperature;BMP_pressure;BME280_temperature;BME280_humidity;BME280_pressure;Samples;Min_cycle;Max_cycle;Signal;HPM_P1;HPM_P2
2022/07/01 00:00:56;;;;;;;22.20;17.40;;;14.20;99.90;;;;;;5056976;28;20454;-65
2022/07/01 00:03:25;;;;;;;17.73;15.40;;;14.10;99.90;;;;;;5050420;28;20467;-66
2022/07/01 00:05:51;;;;;;;19.00;15.40;;;14.20;99.90;;;;;;5055996;28;20503;-66
2022/07/01 00:08:18;;;;;;;21.13;15.43;;;14.00;99.90;;;;;;5055229;28;20810;-66
2022/07/01 00:10:45;;;;;;;19.90;16.20;;;13.90;99.90;;;;;;5055620;28;20470;-65
2022/07/01 00:13:12;;;;;;;20.50;16.10;;;14.00;99.90;;;;;;5050555;28;20463;-65
2022/07/01 00:15:40;;;;;;;17.17;15.13;;;13.90;99.90;;;;;;5054781;28;20463;-65
2022/07/01 00:18:07;;;;;;;17.03;14.90;;;13.90;99.90;;;;;;5058133;28;21202;-67
2022/07/01 00:20:36;;;;;;;17.77;15.87;;;13.90;99.90;;;;;;5059952;28;20474;-66
2022/07/01 00:23:04;;;;;;;17.10;14.90;;;13.90;99.90;;;;;;5057363;28;20832;-65
2022/07/01 00:25:31;;;;;;;23.27;17.00;;;13.90;99.90;;;;;;5056223;28;20459;-66
2022/07/01 00:27:58;;;;;;;21.73;16.93;;;13.90;99.90;;;;;;5059487;28;20463;-66
2022/07/01 00:30:25;;;;;;;22.90;15.90;;;13.80;99.90;;;;;;5054614;28;20471;-65
2022/07/01 00:32:53;;;;;;;18.17;16.13;;;13.80;99.90;;;;;;5057493;28;20459;-67
2022/07/01 00:35:21;;;;;;;18.03;16.13;;;13.70;99.90;;;;;;5057918;28;20464;-65
2022/07/01 00:37:49;;;;;;;22.27;15.10;;;13.80;99.90;;;;;;5052130;28;20462;-66
2022/07/01 00:40:17;;;;;;;18.13;16.47;;;13.80;99.90;;;;;;5051632;28;20464;-65
2022/07/01 00:42:43;;;;;;;17.57;15.70;;;13.90;99.90;;;;;;5061571;28;20459;-66
2022/07/01 00:45:11;;;;;;;16.23;13.80;;;13.90;99.90;;;;;;5055771;28;20838;-67
2022/07/01 00:47:39;;;;;;;20.27;16.17;;;13.80;99.90;;;;;;5053067;28;20863;-66
2022/07/01 00:50:09;;;;;;;16.20;14.40;;;13.80;99.90;;;;;;5052605;28;20474;-65
2022/07/01 00:52:36;;;;;;;23.80;15.70;;;13.80;99.90;;;;;;5053527;28;20472;-65
2022/07/01 00:55:07;;;;;;;16.10;14.40;;;13.80;99.90;;;;;;5056020;28;20474;-67
2022/07/01 00:57:36;;;;;;;15.80;12.83;;;13.80;99.90;;;;;;5048433;28;20467;-65
2022/07/01 01:00:07;;;;;;;18.43;14.40;;;13.90;99.90;;;;;;5051688;28;20488;-66
2022/07/01 01:02:34;;;;;;;17.00;13.63;;;13.90;99.90;;;;;;5056885;28;20460;-67
2022/07/01 01:05:01;;;;;;;19.03;14.80;;;13.80;99.90;;;;;;5055764;28;20991;-66
2022/07/01 01:07:29;;;;;;;22.73;15.33;;;13.70;99.90;;;;;;5051413;28;20463;-66
2022/07/01 01:09:57;;;;;;;17.20;14.27;;;13.70;99.90;;;;;;5053057;28;21070;-66
2022/07/01 01:12:26;;;;;;;17.10;14.37;;;13.70;99.90;;;;;;5053247;28;20837;-65
2022/07/01 01:14:53;;;;;;;17.27;13.50;;;13.60;99.90;;;;;;5049114;28;20969;-66
2022/07/01 01:17:22;;;;;;;18.10;13.73;;;13.60;99.90;;;;;;5055330;28;20463;-65
2022/07/01 01:19:50;;;;;;;19.00;14.57;;;13.60;99.90;;;;;;5051266;28;20490;-67
2022/07/01 01:22:19;;;;;;;22.47;15.73;;;13.70;99.90;;;;;;5050471;28;20519;-66
2022/07/01 01:24:47;;;;;;;22.93;13.17;;;13.70;99.90;;;;;;5057707;28;20858;-65
2022/07/01 01:27:16;;;;;;;16.43;12.90;;;13.60;99.90;;;;;;5053604;28;20484;-65
2022/07/01 01:29:43;;;;;;;18.87;13.53;;;13.60;99.90;;;;;;5054981;28;20965;-66
2022/07/01 01:32:12;;;;;;;23.60;14.53;;;13.60;99.90;;;;;;5056158;28;20862;-66
2022/07/01 01:34:39;;;;;;;22.10;14.57;;;13.60;99.90;;;;;;5054051;28;20575;-66
2022/07/01 01:37:07;;;;;;;19.10;14.30;;;13.60;99.90;;;;;;5055119;28;20476;-67
2022/07/01 01:39:37;;;;;;;19.53;14.40;;;13.50;99.90;;;;;;5049279;28;20492;-68
2022/07/01 01:42:05;;;;;;;21.20;15.20;;;13.60;99.90;;;;;;5051205;28;20460;-67
2022/07/01 01:44:32;;;;;;;21.70;15.60;;;13.60;99.90;;;;;;5047212;28;20473;-68
2022/07/01 01:46:59;;;;;;;20.67;14.60;;;13.60;99.90;;;;;;5052121;28;20474;-68
2022/07/01 01:49:27;;;;;;;26.90;15.67;;;13.50;99.90;;;;;;5053444;28;20462;-67
2022/07/01 01:51:54;;;;;;;21.83;14.60;;;13.60;99.90;;;;;;5052122;28;20538;-67
2022/07/01 01:54:21;;;;;;;20.63;15.77;;;13.60;99.90;;;;;;5050164;28;20467;-65
2022/07/01 01:56:49;;;;;;;20.53;16.50;;;13.50;99.90;;;;;;5054630;28;20466;-67
2022/07/01 01:59:16;;;;;;;16.37;14.67;;;13.50;99.90;;;;;;5053428;28;20490;-66
2022/07/01 02:01:43;;;;;;;23.37;15.90;;;13.60;99.90;;;;;;5055448;28;20463;-65
2022/07/01 02:04:11;;;;;;;21.70;15.73;;;13.70;99.90;;;;;;5054884;28;20842;-68
2022/07/01 02:06:40;;;;;;;18.97;14.50;;;13.70;99.90;;;;;;5050399;28;21116;-67
2022/07/01 02:09:08;;;;;;;16.27;13.80;;;13.80;99.90;;;;;;5053338;28;21115;-68
2022/07/01 02:11:35;;;;;;;21.17;14.10;;;13.70;99.90;;;;;;5046463;28;20554;-68
2022/07/01 02:14:04;;;;;;;24.77;14.83;;;13.60;99.90;;;;;;5049208;28;20464;-65
2022/07/01 02:16:32;;;;;;;19.37;14.43;;;13.60;99.90;;;;;;5049137;28;20471;-66
2022/07/01 02:18:59;;;;;;;20.93;14.00;;;13.60;99.90;;;;;;5049878;28;21055;-66
2022/07/01 02:21:26;;;;;;;17.50;13.57;;;13.60;99.90;;;;;;5053572;28;20452;-67
2022/07/01 02:23:53;;;;;;;15.60;13.00;;;13.60;99.90;;;;;;5056587;28;21004;-66
2022/07/01 02:26:21;;;;;;;19.43;14.63;;;13.60;99.90;;;;;;5046337;28;20488;-66
2022/07/01 02:28:49;;;;;;;14.73;13.20;;;13.60;99.90;;;;;;5052537;28;20467;-67
2022/07/01 02:31:17;;;;;;;15.50;13.87;;;13.60;99.90;;;;;;5055527;28;20466;-66
2022/07/01 02:33:44;;;;;;;16.43;12.40;;;13.70;99.90;;;;;;5052918;28;20456;-68
2022/07/01 02:36:11;;;;;;;14.90;12.03;;;13.50;99.90;;;;;;5052150;28;20475;-66
2022/07/01 02:38:38;;;;;;;18.47;12.67;;;13.50;99.90;;;;;;5051299;28;20484;-66
2022/07/01 02:41:05;;;;;;;12.43;11.23;;;13.50;99.90;;;;;;5052102;28;20464;-66
2022/07/01 02:43:33;;;;;;;15.97;12.63;;;13.50;99.90;;;;;;5053245;28;20561;-68
2022/07/01 02:45:59;;;;;;;12.63;11.43;;;13.50;99.90;;;;;;5055653;28;20827;-67
2022/07/01 02:48:28;;;;;;;19.53;12.10;;;13.50;99.90;;;;;;5059211;28;20467;-67
2022/07/01 02:50:57;;;;;;;13.17;11.50;;;13.50;99.90;;;;;;5054766;28;20509;-66
2022/07/01 02:53:24;;;;;;;11.97;10.87;;;13.50;99.90;;;;;;5054676;28;20474;-66
2022/07/01 02:55:52;;;;;;;12.93;11.20;;;13.50;99.90;;;;;;5056883;28;20938;-66
2022/07/01 02:58:19;;;;;;;19.07;10.80;;;13.50;99.90;;;;;;5059112;28;20533;-67
2022/07/01 03:00:48;;;;;;;13.57;11.87;;;13.50;99.90;;;;;;5054120;28;20467;-67
2022/07/01 03:03:16;;;;;;;12.50;10.80;;;13.40;99.90;;;;;;5057770;28;20455;-67
2022/07/01 03:05:46;;;;;;;11.23;10.23;;;13.40;99.90;;;;;;5050446;28;20448;-66
2022/07/01 03:08:13;;;;;;;20.03;12.07;;;13.50;99.90;;;;;;5053997;28;20455;-67
2022/07/01 03:10:40;;;;;;;16.03;10.90;;;13.40;99.90;;;;;;5057002;28;20502;-67
2022/07/01 03:13:07;;;;;;;13.67;11.50;;;13.40;99.90;;;;;;5057302;28;20935;-67
2022/07/01 03:15:33;;;;;;;19.63;13.40;;;13.40;99.90;;;;;;5059764;28;20460;-66
2022/07/01 03:18:00;;;;;;;17.13;11.70;;;13.30;99.90;;;;;;5064074;28;20463;-67
2022/07/01 03:20:28;;;;;;;16.70;13.27;;;13.40;99.90;;;;;;5057079;28;20487;-66
2022/07/01 03:22:56;;;;;;;13.97;12.67;;;13.40;99.90;;;;;;5055743;28;20462;-67
2022/07/01 03:25:24;;;;;;;19.83;15.30;;;13.30;99.90;;;;;;5054560;28;20479;-66
2022/07/01 03:27:50;;;;;;;19.33;14.43;;;13.40;99.90;;;;;;5060606;28;20483;-66
2022/07/01 03:30:18;;;;;;;16.97;14.30;;;13.30;99.90;;;;;;5053616;28;20959;-67
2022/07/01 03:32:46;;;;;;;14.93;13.40;;;13.40;99.90;;;;;;5049155;28;20940;-67
2022/07/01 03:38:00;;;;;;;20.87;15.07;;;13.50;99.90;;;;;;5052570;28;20548;-67
2022/07/01 03:40:27;;;;;;;18.80;13.07;;;13.50;99.90;;;;;;5053062;28;20496;-68
2022/07/01 03:42:54;;;;;;;22.97;13.17;;;13.50;99.90;;;;;;5059592;28;20468;-66
2022/07/01 03:45:21;;;;;;;15.83;13.40;;;13.60;99.90;;;;;;5054113;28;21043;-66
2022/07/01 03:47:50;;;;;;;27.07;16.13;;;13.60;99.90;;;;;;5065388;28;20516;-65
2022/07/01 03:50:18;;;;;;;16.87;12.90;;;13.60;99.90;;;;;;5053228;28;20891;-68
2022/07/01 03:52:45;;;;;;;18.10;13.70;;;13.60;99.90;;;;;;5054907;28;20455;-67
2022/07/01 03:55:13;;;;;;;21.17;13.60;;;13.70;99.90;;;;;;5052466;28;20464;-66
2022/07/01 03:57:40;;;;;;;18.60;13.03;;;13.70;99.90;;;;;;5057866;28;20481;-68
2022/07/01 04:00:08;;;;;;;18.30;13.40;;;13.70;99.90;;;;;;5056245;28;20515;-66
2022/07/01 04:02:35;;;;;;;13.80;11.03;;;13.70;99.90;;;;;;5039806;28;20471;-67
2022/07/01 04:05:02;;;;;;;13.43;10.93;;;13.60;99.90;;;;;;5030708;28;20559;-67
2022/07/01 04:07:29;;;;;;;11.03;10.13;;;13.80;99.90;;;;;;5029764;28;20921;-66
2022/07/01 04:09:56;;;;;;;12.60;11.00;;;13.70;99.90;;;;;;5030383;28;20491;-66
2022/07/01 04:12:24;;;;;;;14.17;10.80;;;13.80;99.90;;;;;;5030472;28;20842;-66
2022/07/01 04:14:51;;;;;;;10.57;9.67;;;13.90;99.90;;;;;;5030334;28;20464;-68
2022/07/01 04:17:17;;;;;;;10.90;9.80;;;13.90;99.90;;;;;;5029686;28;20869;-67
2022/07/01 04:19:44;;;;;;;12.20;10.17;;;13.90;99.90;;;;;;5029674;28;20493;-68
2022/07/01 04:24:56;;;;;;;12.23;10.40;;;13.90;99.90;;;;;;5030176;28;20985;-67
2022/07/01 04:27:24;;;;;;;11.10;10.10;;;13.90;99.90;;;;;;5029826;28;20490;-66
2022/07/01 04:29:51;;;;;;;14.10;9.73;;;13.90;99.90;;;;;;5030170;28;20471;-67
2022/07/01 04:32:18;;;;;;;16.53;10.37;;;13.90;99.90;;;;;;5029998;28;20914;-67
2022/07/01 04:34:45;;;;;;;13.13;9.10;;;14.00;99.90;;;;;;5030680;28;20444;-69
2022/07/01 04:37:12;;;;;;;9.90;9.03;;;14.10;99.90;;;;;;5030542;28;20467;-68
2022/07/01 04:39:38;;;;;;;10.60;9.60;;;14.20;99.90;;;;;;5029701;28;20601;-67
2022/07/01 04:42:06;;;;;;;9.20;8.33;;;14.30;99.90;;;;;;5029373;28;20476;-67
2022/07/01 04:44:35;;;;;;;11.50;8.30;;;14.20;99.90;;;;;;5029272;28;20483;-67
2022/07/01 04:47:04;;;;;;;10.80;8.30;;;14.20;99.90;;;;;;5030032;28;21245;-66
2022/07/01 04:49:31;;;;;;;13.63;8.93;;;14.20;99.90;;;;;;5029864;28;20538;-67
2022/07/01 04:51:59;;;;;;;15.00;8.90;;;14.30;99.90;;;;;;5029624;28;20464;-68
2022/07/01 04:54:26;;;;;;;12.03;9.33;;;14.40;99.90;;;;;;5028904;28;20823;-65
2022/07/01 04:56:53;;;;;;;11.40;9.60;;;14.40;99.90;;;;;;5029786;28;20475;-67
2022/07/01 04:59:21;;;;;;;11.93;9.40;;;14.20;99.90;;;;;;5028968;28;20487;-67
2022/07/01 05:01:49;;;;;;;18.63;9.77;;;14.20;99.90;;;;;;5030403;28;20505;-66
2022/07/01 05:04:17;;;;;;;10.77;8.77;;;14.30;99.90;;;;;;5030171;28;20851;-67
2022/07/01 05:06:43;;;;;;;10.90;9.30;;;14.40;99.90;;;;;;5029424;28;20468;-65
2022/07/01 05:09:11;;;;;;;15.60;9.43;;;14.50;99.90;;;;;;5029505;28;20506;-68
2022/07/01 05:11:38;;;;;;;10.83;9.43;;;14.50;99.90;;;;;;5029294;28;20479;-68
2022/07/01 05:14:06;;;;;;;11.30;10.10;;;14.70;99.90;;;;;;5029639;28;20452;-67
2022/07/01 05:16:33;;;;;;;16.77;8.90;;;14.70;99.90;;;;;;5029363;28;20471;-68
2022/07/01 05:21:58;;;;;;;15.10;9.53;;;14.80;99.90;;;;;;5029151;28;20463;-67
2022/07/01 05:24:25;;;;;;;10.80;8.90;;;14.80;99.90;;;;;;5029498;28;20517;-67
2022/07/01 05:26:52;;;;;;;15.70;11.07;;;14.90;99.90;;;;;;5028989;28;20491;-68
2022/07/01 05:29:19;;;;;;;13.20;10.57;;;14.90;99.90;;;;;;5029237;28;20559;-67
2022/07/01 05:31:46;;;;;;;14.23;12.93;;;15.00;99.90;;;;;;5026488;28;20463;-68
2022/07/01 05:34:14;;;;;;;16.90;12.80;;;15.00;99.90;;;;;;5028608;28;20463;-67
2022/07/01 05:36:41;;;;;;;14.67;12.70;;;14.90;99.90;;;;;;5029115;28;20464;-68
2022/07/01 05:39:09;;;;;;;12.13;10.70;;;14.90;99.90;;;;;;5027760;28;20471;-68
2022/07/01 05:41:36;;;;;;;13.30;10.10;;;15.00;99.90;;;;;;5028301;28;20550;-68
2022/07/01 05:44:03;;;;;;;11.43;9.50;;;15.00;99.90;;;;;;5028829;28;20463;-69
2022/07/01 05:46:30;;;;;;;10.17;9.20;;;14.90;99.90;;;;;;5028028;28;20675;-68
2022/07/01 05:48:56;;;;;;;10.73;9.70;;;15.00;99.90;;;;;;5028210;28;20460;-69
2022/07/01 05:51:24;;;;;;;9.77;8.77;;;15.00;99.90;;;;;;5027794;28;20480;-67
2022/07/01 05:53:51;;;;;;;10.07;9.20;;;15.20;99.90;;;;;;5028837;28;20463;-67
2022/07/01 05:56:18;;;;;;;9.30;8.60;;;15.20;99.90;;;;;;5028561;28;20494;-67
2022/07/01 05:58:45;;;;;;;9.03;8.23;;;15.30;99.90;;;;;;5029155;28;20838;-67
2022/07/01 06:01:12;;;;;;;12.03;9.50;;;15.40;99.90;;;;;;5030800;28;20474;-66
2022/07/01 06:03:39;;;;;;;12.00;10.37;;;15.50;99.90;;;;;;5053783;28;20468;-66
2022/07/01 06:06:06;;;;;;;10.80;9.73;;;15.60;99.90;;;;;;5050369;28;20464;-67
2022/07/01 06:08:35;;;;;;;14.93;11.47;;;15.70;99.90;;;;;;5053622;28;20984;-66
2022/07/01 06:11:03;;;;;;;11.50;10.33;;;15.60;99.90;;;;;;5051584;28;20468;-66
2022/07/01 06:13:30;;;;;;;12.13;10.93;;;15.70;99.90;;;;;;5026947;28;20473;-67
2022/07/01 06:15:58;;;;;;;11.60;10.50;;;15.80;99.90;;;;;;5025338;28;20472;-67
2022/07/01 06:18:25;;;;;;;13.87;12.53;;;15.90;99.90;;;;;;5027034;28;20520;-67
2022/07/01 06:20:52;;;;;;;13.60;12.30;;;16.00;99.90;;;;;;5026211;28;20515;-67
2022/07/01 06:23:19;;;;;;;15.23;13.77;;;15.90;99.90;;;;;;5025826;28;20471;-66
2022/07/01 06:25:48;;;;;;;15.17;13.60;;;15.90;99.90;;;;;;5026372;28;20993;-68
2022/07/01 06:28:15;;;;;;;13.77;12.50;;;15.90;99.90;;;;;;5027016;28;21531;-67
2022/07/01 06:30:43;;;;;;;15.00;13.47;;;15.90;99.90;;;;;;5034170;28;20963;-65
2022/07/01 06:33:12;;;;;;;14.63;13.43;;;15.90;99.90;;;;;;5030575;28;20498;-67
2022/07/01 06:35:39;;;;;;;17.83;13.07;;;16.10;99.90;;;;;;5030684;28;20530;-68
2022/07/01 06:38:06;;;;;;;15.70;13.70;;;15.90;99.90;;;;;;5031313;28;20489;-67
2022/07/01 06:40:33;;;;;;;16.27;13.63;;;15.90;99.90;;;;;;5029033;28;20486;-67
2022/07/01 06:43:01;;;;;;;14.53;13.37;;;15.90;99.90;;;;;;5030928;28;20463;-67
2022/07/01 06:45:27;;;;;;;15.10;13.80;;;15.90;99.90;;;;;;5030695;28;20464;-68
2022/07/01 06:47:54;;;;;;;15.57;14.27;;;16.10;99.90;;;;;;5030416;28;20474;-67
2022/07/01 06:50:22;;;;;;;17.17;14.77;;;16.30;99.90;;;;;;5029767;28;21175;-68
2022/07/01 06:52:48;;;;;;;15.47;13.90;;;16.20;99.90;;;;;;5029895;28;20463;-66
2022/07/01 06:55:15;;;;;;;15.93;13.80;;;16.10;99.90;;;;;;5053046;28;20511;-67
2022/07/01 06:57:42;;;;;;;14.67;12.90;;;16.20;99.90;;;;;;5036113;28;20452;-67
2022/07/01 07:00:12;;;;;;;13.60;12.70;;;16.30;99.90;;;;;;5029447;28;20492;-66
2022/07/01 07:02:39;;;;;;;13.63;12.23;;;16.50;99.90;;;;;;5030466;28;20474;-67
2022/07/01 07:05:07;;;;;;;14.83;13.33;;;16.70;99.90;;;;;;5030622;28;20582;-68
2022/07/01 07:07:34;;;;;;;15.20;14.00;;;17.20;99.90;;;;;;5029995;28;20472;-67
2022/07/01 07:10:01;;;;;;;15.23;13.60;;;17.40;99.90;;;;;;5030271;28;20495;-68
2022/07/01 07:12:28;;;;;;;15.90;14.60;;;17.80;99.90;;;;;;5029619;28;21024;-67
2022/07/01 07:14:56;;;;;;;15.97;14.67;;;18.10;99.90;;;;;;5030101;28;20472;-66
2022/07/01 07:17:24;;;;;;;14.90;13.73;;;18.20;99.90;;;;;;5030218;28;20879;-67
2022/07/01 07:19:51;;;;;;;15.43;14.20;;;18.00;99.90;;;;;;5029545;28;20460;-66
2022/07/01 07:22:18;;;;;;;16.30;14.93;;;17.90;99.90;;;;;;5030476;28;20518;-67
2022/07/01 07:24:45;;;;;;;16.90;15.40;;;17.70;99.90;;;;;;5029501;28;20455;-67
2022/07/01 07:27:12;;;;;;;16.03;14.83;;;17.50;99.90;;;;;;5029762;28;20566;-66
2022/07/01 07:29:39;;;;;;;16.77;15.00;;;17.70;99.90;;;;;;5029879;28;20467;-68
2022/07/01 07:32:07;;;;;;;15.30;14.17;;;17.70;99.90;;;;;;5028930;28;21101;-68
2022/07/01 07:34:35;;;;;;;14.90;13.57;;;18.00;99.90;;;;;;5030514;28;20857;-67
2022/07/01 07:37:02;;;;;;;14.33;13.23;;;18.20;99.90;;;;;;5029805;28;20985;-66
2022/07/01 07:39:28;;;;;;;17.03;15.33;;;18.30;99.90;;;;;;5029638;28;20474;-68
2022/07/01 07:41:56;;;;;;;14.67;13.70;;;18.20;99.90;;;;;;5046497;28;21023;-65
2022/07/01 07:44:23;;;;;;;14.40;13.30;;;18.30;99.90;;;;;;5056200;28;20954;-66
2022/07/01 07:46:50;;;;;;;15.23;13.60;;;18.10;99.90;;;;;;5057176;28;20463;-67
2022/07/01 07:49:17;;;;;;;14.90;14.00;;;18.10;99.90;;;;;;5049869;28;21012;-66
2022/07/01 07:51:46;;;;;;;15.87;14.57;;;18.40;99.90;;;;;;5029465;28;22363;-67
2022/07/01 07:54:13;;;;;;;15.20;14.20;;;18.30;99.90;;;;;;5028854;28;20470;-66
2022/07/01 07:56:39;;;;;;;15.67;14.47;;;18.50;99.90;;;;;;5028723;28;20743;-68
2022/07/01 07:59:07;;;;;;;15.10;14.07;;;18.40;99.90;;;;;;5028759;28;20966;-67
2022/07/01 08:01:34;;;;;;;14.70;13.70;;;18.60;99.90;;;;;;5028996;28;21065;-68
2022/07/01 08:04:01;;;;;;;16.17;14.83;;;18.70;99.90;;;;;;5028924;28;20538;-67
2022/07/01 08:06:29;;;;;;;16.10;14.80;;;18.70;99.90;;;;;;5028383;28;20467;-64
2022/07/01 08:08:57;;;;;;;15.40;14.30;;;19.00;99.90;;;;;;5028625;28;20492;-67
2022/07/01 08:11:24;;;;;;;16.37;15.17;;;19.20;99.90;;;;;;5029002;28;21057;-67
2022/07/01 08:13:51;;;;;;;16.53;15.20;;;19.00;99.90;;;;;;5028914;28;20476;-66
2022/07/01 08:16:18;;;;;;;16.00;14.80;;;19.20;99.90;;;;;;5028890;28;20458;-67
2022/07/01 08:18:45;;;;;;;15.87;14.83;;;19.30;99.90;;;;;;5028677;28;20474;-67
2022/07/01 08:21:13;;;;;;;16.03;15.13;;;19.20;99.90;;;;;;5028228;28;20491;-67
2022/07/01 08:23:39;;;;;;;16.17;15.10;;;19.40;99.90;;;;;;5028318;28;20468;-67
2022/07/01 08:26:07;;;;;;;16.80;15.70;;;19.60;99.90;;;;;;5028014;28;20492;-65
2022/07/01 08:28:35;;;;;;;16.23;15.10;;;19.70;99.90;;;;;;5028753;28;20494;-66
2022/07/01 08:31:03;;;;;;;19.50;15.30;;;19.50;99.90;;;;;;5028574;28;20491;-66
2022/07/01 08:33:29;;;;;;;16.50;15.37;;;20.30;99.90;;;;;;5027700;28;20806;-67
2022/07/01 08:35:56;;;;;;;15.40;14.57;;;21.00;99.90;;;;;;5027777;28;20468;-66
2022/07/01 08:38:23;;;;;;;15.83;14.83;;;20.90;99.90;;;;;;5027435;28;20981;-66
2022/07/01 08:40:50;;;;;;;16.40;15.20;;;20.60;99.90;;;;;;5028243;28;20494;-66
2022/07/01 08:43:19;;;;;;;16.33;15.33;;;20.60;99.90;;;;;;5027977;28;20466;-66
2022/07/01 08:45:46;;;;;;;17.33;15.83;;;20.50;99.90;;;;;;5027327;28;20468;-67
2022/07/01 08:48:12;;;;;;;17.93;16.10;;;20.50;99.90;;;;;;5028200;28;20491;-66
2022/07/01 08:50:41;;;;;;;16.63;15.73;;;20.70;99.90;;;;;;5028921;28;20824;-66
2022/07/01 08:53:09;;;;;;;16.90;15.60;;;20.30;99.90;;;;;;5027526;28;20475;-66
2022/07/01 08:56:40;;;;;;;16.93;15.43;;;20.50;99.90;;;;;;5027078;28;20611;-67
2022/07/01 08:58:27;;;;;;;16.03;15.10;;;20.60;99.90;;;;;;5028532;28;20478;-66
2022/07/01 09:01:12;;;;;;;17.30;16.00;;;20.40;99.90;;;;;;5027723;28;20483;-68
2022/07/01 09:03:38;;;;;;;17.10;15.90;;;20.30;99.90;;;;;;5027638;28;20681;-67
2022/07/01 09:06:13;;;;;;;16.27;15.33;;;20.90;99.90;;;;;;5027142;28;20803;-67
2022/07/01 09:08:40;;;;;;;17.97;16.77;;;21.30;99.90;;;;;;5026277;28;21010;-67
2022/07/01 09:11:13;;;;;;;17.07;15.90;;;21.90;99.90;;;;;;5027383;28;20955;-67
2022/07/01 09:13:42;;;;;;;17.20;15.73;;;22.10;99.90;;;;;;5027699;28;20574;-69
2022/07/01 09:16:13;;;;;;;17.40;16.33;;;22.80;99.90;;;;;;5026785;28;20797;-67
2022/07/01 09:18:40;;;;;;;17.07;16.00;;;22.60;99.90;;;;;;5026793;28;20873;-67
2022/07/01 09:21:14;;;;;;;17.20;16.20;;;22.50;99.90;;;;;;5027380;28;20488;-67
2022/07/01 09:23:41;;;;;;;18.23;16.50;;;22.90;99.90;;;;;;5038806;28;20827;-70
2022/07/01 09:26:19;;;;;;;17.00;15.93;;;22.70;99.90;;;;;;5052491;28;20486;-68
2022/07/01 09:28:55;;;;;;;16.40;15.43;;;22.40;99.90;;;;;;5053224;28;20456;-67
2022/07/01 09:31:22;;;;;;;16.67;15.77;;;22.00;99.90;;;;;;5058531;28;20965;-66
2022/07/01 09:34:04;;;;;;;16.80;15.70;;;22.20;99.90;;;;;;5028477;28;20479;-69
2022/07/01 09:36:32;;;;;;;17.53;16.23;;;22.50;99.90;;;;;;5027427;28;20462;-67
2022/07/01 09:39:04;;;;;;;16.50;15.60;;;22.10;99.90;;;;;;5027488;28;20665;-67
2022/07/01 09:41:37;;;;;;;16.20;15.47;;;22.30;99.90;;;;;;5026974;28;21212;-69
2022/07/01 09:44:10;;;;;;;17.43;16.37;;;22.50;99.90;;;;;;5027025;28;20579;-67
2022/07/01 09:46:37;;;;;;;16.50;15.60;;;23.00;99.90;;;;;;5026940;28;20554;-66
2022/07/01 09:49:04;;;;;;;17.93;16.57;;;23.00;99.90;;;;;;5026648;28;20466;-68
2022/07/01 09:51:31;;;;;;;17.13;16.00;;;23.10;99.90;;;;;;5027273;28;20823;-66
2022/07/01 09:53:58;;;;;;;16.57;15.57;;;22.50;99.90;;;;;;5027920;28;20482;-69
2022/07/01 09:56:25;;;;;;;17.00;15.67;;;22.80;99.90;;;;;;5026213;28;20456;-66
2022/07/01 09:58:52;;;;;;;16.87;15.87;;;22.80;99.90;;;;;;5026923;28;20466;-67
2022/07/01 10:01:21;;;;;;;16.93;15.73;;;23.00;99.90;;;;;;5026555;28;21186;-67
2022/07/01 10:03:50;;;;;;;16.30;15.40;;;23.00;99.90;;;;;;5028235;28;20471;-66
2022/07/01 10:06:43;;;;;;;16.30;15.30;;;22.60;99.90;;;;;;5029909;28;21048;-68
2022/07/01 10:09:24;;;;;;;16.33;15.40;;;22.50;99.90;;;;;;5030670;28;20899;-67
2022/07/01 10:12:29;;;;;;;16.93;16.03;;;23.40;99.90;;;;;;5030272;28;20996;-67
2022/07/01 10:14:59;;;;;;;16.40;15.60;;;24.10;99.90;;;;;;5031559;28;20452;-66
2022/07/01 10:17:33;;;;;;;17.47;16.57;;;25.00;99.90;;;;;;5031797;28;20464;-68
2022/07/01 10:20:15;;;;;;;16.70;15.90;;;26.10;99.10;;;;;;5031271;28;20477;-68
2022/07/01 10:22:43;;;;;;;16.67;15.67;;;26.30;97.70;;;;;;5030788;28;21047;-67
2022/07/01 10:25:40;;;;;;;19.43;16.30;;;26.30;96.30;;;;;;5031129;28;20475;-66
2022/07/01 10:28:22;;;;;;;16.57;15.67;;;25.50;95.10;;;;;;5031142;28;20470;-66
2022/07/01 10:30:59;;;;;;;16.67;15.40;;;24.90;95.30;;;;;;5030988;28;20467;-67
2022/07/01 10:33:33;;;;;;;16.83;15.70;;;24.40;96.30;;;;;;5030859;28;20830;-67
2022/07/01 10:36:08;;;;;;;16.60;15.70;;;23.60;96.70;;;;;;5031511;28;21432;-65
2022/07/01 10:38:35;;;;;;;16.83;15.83;;;23.30;97.70;;;;;;5030809;28;20471;-66
2022/07/01 10:41:10;;;;;;;16.70;15.70;;;23.80;96.90;;;;;;5029639;28;21290;-67
2022/07/01 10:43:40;;;;;;;16.57;15.67;;;23.30;98.90;;;;;;5029634;28;20966;-67
2022/07/01 10:46:07;;;;;;;16.00;15.10;;;23.60;98.80;;;;;;5030797;28;20470;-66
2022/07/01 10:48:36;;;;;;;16.80;15.90;;;23.80;97.30;;;;;;5030363;28;21196;-66
2022/07/01 10:51:03;;;;;;;16.50;15.70;;;23.70;96.30;;;;;;5029398;28;20880;-68
2022/07/01 10:53:46;;;;;;;16.77;15.67;;;23.80;96.40;;;;;;5030851;28;20471;-67
2022/07/01 10:56:18;;;;;;;16.80;15.57;;;24.10;96.60;;;;;;5030280;28;20506;-68
2022/07/01 10:58:45;;;;;;;16.60;15.60;;;24.40;95.40;;;;;;5030025;28;20483;-68
2022/07/01 11:01:12;;;;;;;16.60;15.40;;;24.40;93.10;;;;;;5029301;28;20827;-69
2022/07/01 11:03:40;;;;;;;16.77;15.77;;;24.70;94.90;;;;;;5029228;28;20472;-69
2022/07/01 11:06:07;;;;;;;17.20;16.10;;;25.30;92.30;;;;;;5029722;28;20989;-68
2022/07/01 11:08:35;;;;;;;16.57;15.63;;;24.80;93.70;;;;;;5030378;28;20468;-66
2022/07/01 11:11:04;;;;;;;16.17;15.37;;;24.10;94.20;;;;;;5030318;28;20460;-69
2022/07/01 11:13:32;;;;;;;16.70;15.63;;;24.10;92.90;;;;;;5029928;28;20468;-67
2022/07/01 11:16:00;;;;;;;16.63;15.63;;;24.20;92.70;;;;;;5029014;28;21141;-68
2022/07/01 11:18:28;;;;;;;16.13;15.23;;;24.50;93.30;;;;;;5029820;28;20475;-67
2022/07/01 11:21:05;;;;;;;17.17;15.43;;;25.00;93.60;;;;;;5029568;28;20475;-68
2022/07/01 11:23:32;;;;;;;17.03;16.23;;;25.70;92.70;;;;;;5030333;28;20463;-69
2022/07/01 11:25:59;;;;;;;16.90;16.10;;;26.40;91.40;;;;;;5029396;28;21202;-69
2022/07/01 11:28:26;;;;;;;16.40;15.60;;;25.90;90.00;;;;;;5030583;28;20894;-68
2022/07/01 11:31:00;;;;;;;16.20;15.40;;;26.00;84.00;;;;;;5028948;28;20456;-68
2022/07/01 11:33:28;;;;;;;16.20;15.47;;;26.10;81.00;;;;;;5029050;28;20484;-68
2022/07/01 11:41:31;;;;;;;16.13;15.27;;;27.40;74.40;;;;;;5029611;28;20498;-68
2022/07/01 11:43:58;;;;;;;16.07;15.37;;;27.80;76.70;;;;;;5029935;28;20456;-67
2022/07/01 11:46:24;;;;;;;16.23;15.43;;;28.40;76.90;;;;;;5030065;28;20481;-68
2022/07/01 11:48:53;;;;;;;16.37;15.57;;;28.50;71.50;;;;;;5029016;28;20547;-70
2022/07/01 11:51:22;;;;;;;16.87;15.67;;;28.80;68.90;;;;;;5028873;28;21056;-69
2022/07/01 11:53:52;;;;;;;16.23;15.37;;;29.20;66.30;;;;;;5028151;28;20914;-68
2022/07/01 11:56:29;;;;;;;15.83;15.03;;;28.60;64.70;;;;;;5028493;28;20465;-70
2022/07/01 11:58:57;;;;;;;15.90;15.00;;;27.30;65.70;;;;;;5029033;28;21065;-69
2022/07/01 12:01:29;;;;;;;16.03;15.30;;;26.60;68.80;;;;;;5028185;28;20482;-69
2022/07/01 12:03:59;;;;;;;15.47;14.77;;;25.90;73.30;;;;;;5028560;28;20459;-67
2022/07/01 12:06:28;;;;;;;16.30;15.30;;;25.50;75.40;;;;;;5028878;28;20726;-68
2022/07/01 12:08:57;;;;;;;16.10;15.40;;;24.90;77.00;;;;;;5029290;28;20501;-67
2022/07/01 12:11:25;;;;;;;16.23;15.37;;;24.70;80.10;;;;;;5028750;28;20475;-67
2022/07/01 12:13:53;;;;;;;15.80;14.90;;;24.00;82.30;;;;;;5028541;28;20460;-67
2022/07/01 12:16:20;;;;;;;15.70;14.90;;;24.20;88.00;;;;;;5029058;28;20474;-67
2022/07/01 12:18:53;;;;;;;16.20;15.40;;;25.20;83.90;;;;;;5027537;28;20459;-67
2022/07/01 12:21:21;;;;;;;15.40;14.50;;;26.10;79.30;;;;;;5028927;28;20475;-67
2022/07/01 12:26:53;;;;;;;16.00;15.30;;;25.90;73.10;;;;;;5084452;27;20570;-66
2022/07/01 12:29:21;;;;;;;16.63;15.73;;;26.10;75.70;;;;;;5083602;28;20548;-67
2022/07/01 12:32:04;;;;;;;16.10;15.30;;;25.80;76.30;;;;;;5082295;28;20468;-66
2022/07/01 12:34:42;;;;;;;15.67;14.77;;;25.10;77.50;;;;;;5081197;27;20504;-66
2022/07/01 12:37:13;;;;;;;15.57;14.57;;;24.90;77.40;;;;;;5082520;28;20453;-65
2022/07/01 12:39:45;;;;;;;16.23;15.33;;;26.10;75.70;;;;;;5083989;28;20461;-68
2022/07/01 12:42:23;;;;;;;15.63;14.60;;;26.40;70.50;;;;;;5084584;27;20464;-66
2022/07/01 12:44:50;;;;;;;16.13;15.23;;;26.30;74.10;;;;;;5084909;28;20944;-68
2022/07/01 12:47:19;;;;;;;16.40;15.30;;;27.20;71.30;;;;;;5084939;27;20460;-69
2022/07/01 12:49:46;;;;;;;15.70;14.73;;;26.90;71.90;;;;;;5084569;28;20465;-66
2022/07/01 12:52:25;;;;;;;15.77;14.90;;;26.70;70.60;;;;;;5084443;28;20473;-66